La Isla, Colorado
Current Conditions -  °F | °C
As of 5:52 AM on Monday 20 Oct 2014 (Local Time) from KALS Reporting Station
Broken Clouds Broken Clouds  
Wind Chill: 34°   Ceiling: 9000
Heat Index: 34°   Visibility: 10mi
Dew Point: 30°   Wind: 3mph
Humidity: 85%   Direction: 60°ENE
Pressure: 30.29"   Gusts: NA
Location:  37.1816°N, 106.262°W
Report Text: KALS 201152Z AUTO 06003KT 10SM BKN090 01/M01 A3029 RMK AO2 SLP208 T00111011 10061 21006 53002 $
Loading
Personal Weather Stations






























Interactive Weather Map
Tropical Storm Tracking
New forecast layout! Learn more

10-Day Weather Forecast

Advertisements
Track Severe Weather on mobile